createdAt,value
2017-07-08T00:01:18.633Z,8.67
2017-07-08T00:03:46.079Z,9.00
2017-07-08T00:06:14.293Z,8.50
2017-07-08T00:08:41.749Z,8.40
2017-07-08T00:11:09.191Z,9.17
2017-07-08T00:13:36.647Z,8.60
2017-07-08T00:16:04.084Z,9.17
2017-07-08T00:18:32.306Z,8.73
2017-07-08T00:20:59.749Z,9.23
2017-07-08T00:23:27.196Z,8.57
2017-07-08T00:25:54.659Z,8.53
2017-07-08T00:28:22.096Z,9.07
2017-07-08T00:30:49.544Z,8.60
2017-07-08T00:33:17.752Z,8.43
2017-07-08T00:35:45.208Z,8.40
2017-07-08T00:38:12.656Z,10.53
2017-07-08T00:40:40.121Z,8.33
2017-07-08T00:43:07.568Z,8.20
2017-07-08T00:45:35.016Z,8.80
2017-07-08T00:48:02.455Z,8.90
2017-07-08T00:50:30.676Z,8.97
2017-07-08T00:52:58.118Z,9.13
2017-07-08T00:55:25.552Z,7.80
2017-07-08T00:57:53.002Z,8.33
2017-07-08T01:00:21.207Z,8.30
2017-07-08T01:02:48.665Z,9.60
2017-07-08T01:05:16.103Z,8.00
2017-07-08T01:07:43.561Z,8.30
2017-07-08T01:10:10.991Z,9.10
2017-07-08T01:12:38.452Z,10.50
2017-07-08T01:15:06.652Z,8.30
2017-07-08T01:17:34.103Z,7.77
2017-07-08T01:20:01.552Z,6.90
2017-07-08T01:22:29.755Z,8.17
2017-07-08T01:24:57.204Z,8.40
2017-07-08T01:27:24.675Z,8.03
2017-07-08T01:29:52.116Z,8.37
2017-07-08T01:32:19.553Z,7.00
2017-07-08T01:34:47.012Z,8.13
2017-07-08T01:37:14.460Z,8.27
2017-07-08T01:39:42.692Z,7.43
2017-07-08T01:42:10.127Z,7.47
2017-07-08T01:44:37.581Z,8.43
2017-07-08T01:47:05.012Z,7.73
2017-07-08T01:49:32.471Z,7.23
2017-07-08T01:52:04.525Z,7.53
2017-07-08T01:54:32.748Z,8.50
2017-07-08T01:57:00.194Z,7.20
2017-07-08T01:59:27.639Z,7.87
2017-07-08T02:01:55.077Z,6.90
2017-07-08T02:04:23.285Z,6.87
2017-07-08T02:06:50.738Z,6.50
2017-07-08T02:09:18.183Z,8.40
2017-07-08T02:11:45.638Z,6.73
2017-07-08T02:14:13.072Z,6.53
2017-07-08T02:16:41.291Z,7.00
2017-07-08T02:19:08.737Z,7.03
2017-07-08T02:21:36.185Z,9.17
2017-07-08T02:24:03.638Z,6.90
2017-07-08T02:26:31.094Z,5.80
2017-07-08T02:28:58.531Z,5.60
2017-07-08T02:31:26.747Z,6.13
2017-07-08T02:33:54.196Z,8.37
2017-07-08T02:36:21.647Z,7.17
2017-07-08T02:38:49.085Z,7.03
2017-07-08T02:41:16.524Z,6.70
2017-07-08T02:43:43.980Z,5.83
2017-07-08T02:46:11.425Z,7.50
2017-07-08T02:48:38.873Z,6.20
2017-07-08T02:51:06.319Z,8.27
2017-07-08T02:53:37.528Z,8.40
2017-07-08T02:56:04.964Z,6.40
2017-07-08T02:58:33.182Z,6.33
2017-07-08T03:01:00.629Z,6.07
2017-07-08T03:03:28.091Z,6.20
2017-07-08T03:05:55.528Z,6.17
2017-07-08T03:08:22.977Z,5.83
2017-07-08T03:10:50.415Z,6.80
2017-07-08T03:13:17.863Z,6.03
2017-07-08T03:15:46.067Z,4.90
2017-07-08T03:18:13.516Z,6.40
2017-07-08T03:20:40.955Z,6.60
2017-07-08T03:23:08.411Z,5.63
2017-07-08T03:25:35.868Z,9.27
2017-07-08T03:28:03.307Z,6.83
2017-07-08T03:30:30.752Z,5.80
2017-07-08T03:32:58.221Z,5.90
2017-07-08T03:35:25.664Z,7.77
2017-07-08T03:37:53.107Z,6.20
2017-07-08T03:40:20.568Z,11.73
2017-07-08T03:42:48.006Z,4.83
2017-07-08T03:45:15.460Z,5.10
2017-07-08T03:47:42.920Z,6.37
2017-07-08T03:50:10.364Z,5.47
2017-07-08T03:52:41.244Z,8.37
2017-07-08T03:55:08.697Z,6.70
2017-07-08T03:57:36.144Z,6.90
2017-07-08T04:00:03.606Z,6.53
2017-07-08T04:02:31.048Z,6.10
2017-07-08T04:04:58.504Z,5.93
2017-07-08T04:07:25.940Z,5.40
2017-07-08T04:09:53.405Z,6.33
2017-07-08T04:12:20.843Z,5.30
2017-07-08T04:14:48.302Z,5.27
2017-07-08T04:17:15.740Z,5.07
2017-07-08T04:19:43.193Z,6.37
2017-07-08T04:22:10.644Z,5.10
2017-07-08T04:24:38.080Z,4.63
2017-07-08T04:27:05.537Z,5.07
2017-07-08T04:29:32.976Z,6.80
2017-07-08T04:32:00.427Z,5.70
2017-07-08T04:34:27.867Z,4.60
2017-07-08T04:36:55.315Z,6.53
2017-07-08T04:39:22.765Z,6.57
2017-07-08T04:41:50.992Z,5.40
2017-07-08T04:44:18.435Z,9.20
2017-07-08T04:46:45.889Z,5.57
2017-07-08T04:49:14.136Z,4.33
2017-07-08T04:51:41.609Z,4.67
2017-07-08T04:54:09.053Z,7.23
2017-07-08T04:56:36.485Z,5.67
2017-07-08T04:59:03.932Z,6.10
2017-07-08T05:01:31.372Z,5.40
2017-07-08T05:03:58.820Z,3.70
2017-07-08T05:06:26.259Z,6.37
2017-07-08T05:08:53.712Z,4.33
2017-07-08T05:11:21.156Z,4.90
2017-07-08T05:13:48.604Z,4.70
2017-07-08T05:16:16.047Z,4.07
2017-07-08T05:18:44.285Z,4.57
2017-07-08T05:21:11.723Z,4.03
2017-07-08T05:23:39.172Z,4.57
2017-07-08T05:26:06.633Z,5.40
2017-07-08T05:28:34.089Z,6.87
2017-07-08T05:31:01.540Z,7.33
2017-07-08T05:33:28.979Z,4.70
2017-07-08T05:35:56.432Z,5.03
2017-07-08T05:38:23.875Z,4.07
2017-07-08T05:40:52.092Z,4.63
2017-07-08T05:43:19.549Z,4.50
2017-07-08T05:45:47.000Z,4.67
2017-07-08T05:48:14.439Z,4.80
2017-07-08T05:50:41.892Z,4.97
2017-07-08T05:53:09.341Z,5.63
2017-07-08T05:55:36.787Z,4.60
2017-07-08T05:58:04.992Z,4.97
2017-07-08T06:00:32.440Z,4.50
2017-07-08T06:02:59.884Z,4.20
2017-07-08T06:05:28.101Z,3.63
2017-07-08T06:07:55.546Z,4.47
2017-07-08T06:10:23.004Z,4.73
2017-07-08T06:12:50.443Z,4.77
2017-07-08T06:15:17.881Z,4.50
2017-07-08T06:17:46.095Z,5.23
2017-07-08T06:20:13.547Z,3.40
2017-07-08T06:22:41.003Z,5.70
2017-07-08T06:25:08.443Z,5.17
2017-07-08T06:27:35.891Z,3.67
2017-07-08T06:30:03.331Z,4.27
2017-07-08T06:32:31.553Z,3.83
2017-07-08T06:34:58.988Z,5.20
2017-07-08T06:37:26.452Z,3.73
2017-07-08T06:39:53.897Z,3.10
2017-07-08T06:42:21.353Z,6.17
2017-07-08T06:44:48.792Z,3.50
2017-07-08T06:47:17.024Z,3.80
2017-07-08T06:49:44.464Z,3.40
2017-07-08T06:52:11.920Z,3.47
2017-07-08T06:54:39.381Z,4.63
2017-07-08T06:57:06.815Z,4.37
2017-07-08T06:59:34.263Z,5.20
2017-07-08T07:02:01.713Z,4.73
2017-07-08T07:04:29.932Z,4.03
2017-07-08T07:06:57.379Z,4.87
2017-07-08T07:09:24.841Z,4.80
2017-07-08T07:11:52.276Z,5.50
2017-07-08T07:14:19.725Z,4.40
2017-07-08T07:16:47.172Z,5.03
2017-07-08T07:19:15.393Z,4.13
2017-07-08T07:21:42.836Z,7.83
2017-07-08T07:24:10.303Z,6.83
2017-07-08T07:26:37.739Z,6.63
2017-07-08T07:29:05.208Z,7.57
2017-07-08T07:31:32.650Z,5.67
2017-07-08T07:34:00.095Z,5.67
2017-07-08T07:36:27.544Z,5.33
2017-07-08T07:38:55.758Z,5.53
2017-07-08T07:41:23.209Z,5.90
2017-07-08T07:43:50.656Z,5.90
2017-07-08T07:46:18.108Z,4.50
2017-07-08T07:48:45.557Z,5.10
2017-07-08T07:51:13.003Z,5.03
2017-07-08T07:53:41.210Z,7.30
2017-07-08T07:56:08.663Z,4.83
2017-07-08T07:58:36.101Z,5.83
2017-07-08T08:01:03.558Z,5.30
2017-07-08T08:03:30.998Z,4.23
2017-07-08T08:05:59.213Z,4.30
2017-07-08T08:08:26.679Z,5.17
2017-07-08T08:10:54.127Z,4.40
2017-07-08T08:13:21.577Z,4.43
2017-07-08T08:15:49.016Z,4.30
2017-07-08T08:18:16.472Z,4.30
2017-07-08T08:20:43.908Z,3.90
2017-07-08T08:23:12.127Z,3.87
2017-07-08T08:25:39.572Z,3.90
2017-07-08T08:28:07.028Z,3.70
2017-07-08T08:30:34.476Z,2.90
2017-07-08T08:33:01.935Z,3.10
2017-07-08T08:35:29.382Z,3.67
2017-07-08T08:37:56.824Z,3.60
2017-07-08T08:40:25.041Z,3.30
2017-07-08T08:42:52.488Z,4.67
2017-07-08T08:45:19.952Z,2.53
2017-07-08T08:47:47.412Z,2.63
2017-07-08T08:50:14.851Z,2.80
2017-07-08T08:52:42.296Z,2.90
2017-07-08T08:55:09.748Z,3.40
2017-07-08T08:57:37.960Z,4.13
2017-07-08T09:00:05.412Z,2.43
2017-07-08T09:02:32.861Z,3.60
2017-07-08T09:05:00.299Z,3.30
2017-07-08T09:07:27.762Z,2.10
2017-07-08T09:09:55.200Z,3.90
2017-07-08T09:12:22.656Z,3.53
2017-07-08T09:14:50.875Z,2.30
2017-07-08T09:17:18.332Z,2.37
2017-07-08T09:19:45.789Z,4.40
2017-07-08T09:22:13.244Z,2.80
2017-07-08T09:24:40.688Z,5.90
2017-07-08T09:27:08.140Z,5.17
2017-07-08T09:29:35.591Z,2.53
2017-07-08T09:32:03.056Z,2.53
2017-07-08T09:34:30.495Z,2.40
2017-07-08T09:36:57.948Z,5.07
2017-07-08T09:39:26.154Z,3.10
2017-07-08T09:41:53.616Z,2.17
2017-07-08T09:44:21.052Z,2.93
2017-07-08T09:46:48.530Z,2.10
2017-07-08T09:49:15.978Z,3.57
2017-07-08T09:51:43.415Z,1.63
2017-07-08T09:54:10.877Z,1.70
2017-07-08T09:56:38.312Z,2.03
2017-07-08T09:59:06.531Z,2.10
2017-07-08T10:01:33.976Z,2.23
2017-07-08T10:04:01.439Z,3.00
2017-07-08T10:06:28.876Z,2.23
2017-07-08T10:08:56.327Z,2.50
2017-07-08T10:11:23.772Z,3.03
2017-07-08T10:13:51.997Z,2.83
2017-07-08T10:16:19.437Z,2.60
2017-07-08T10:18:46.889Z,3.37
2017-07-08T10:21:14.326Z,3.50
2017-07-08T10:23:41.774Z,3.00
2017-07-08T10:26:09.992Z,2.63
2017-07-08T10:28:37.435Z,3.77
2017-07-08T10:31:04.901Z,3.57
2017-07-08T10:33:32.349Z,2.90
2017-07-08T10:35:59.800Z,2.80
2017-07-08T10:38:27.240Z,3.70
2017-07-08T10:40:55.460Z,3.33
2017-07-08T10:43:22.905Z,4.33
2017-07-08T10:45:50.367Z,3.50
2017-07-08T10:48:17.823Z,2.67
2017-07-08T10:50:45.280Z,2.87
2017-07-08T10:53:12.725Z,3.10
2017-07-08T10:55:40.184Z,3.00
2017-07-08T10:58:07.632Z,2.43
2017-07-08T11:00:35.083Z,4.90
2017-07-08T11:03:02.536Z,2.10
2017-07-08T11:05:29.984Z,3.03
2017-07-08T11:07:58.200Z,2.40
2017-07-08T11:10:25.651Z,2.50
2017-07-08T11:12:53.108Z,3.03
2017-07-08T11:15:20.551Z,2.20
2017-07-08T11:17:48.029Z,2.80
2017-07-08T11:20:15.460Z,2.23
2017-07-08T11:22:42.915Z,3.63
2017-07-08T11:25:10.365Z,2.77
2017-07-08T11:27:37.827Z,2.83
2017-07-08T11:30:05.267Z,2.60
2017-07-08T11:32:33.491Z,2.40
2017-07-08T11:35:00.936Z,2.37
2017-07-08T11:37:28.387Z,2.53
2017-07-08T11:39:55.832Z,3.70
2017-07-08T11:42:23.276Z,2.60
2017-07-08T11:44:50.723Z,2.33
2017-07-08T11:47:18.931Z,5.00
2017-07-08T11:49:46.396Z,2.17
2017-07-08T11:52:13.842Z,2.90
2017-07-08T11:54:41.288Z,4.40
2017-07-08T11:57:08.732Z,3.50
2017-07-08T11:59:36.961Z,3.37
2017-07-08T12:02:04.408Z,2.70
2017-07-08T12:04:31.874Z,3.23
2017-07-08T12:06:59.315Z,3.10
2017-07-08T12:09:26.788Z,3.07
2017-07-08T12:11:54.286Z,3.20
2017-07-08T12:14:21.672Z,3.30
2017-07-08T12:16:49.135Z,3.33
2017-07-08T12:19:16.571Z,3.47
2017-07-08T12:21:44.032Z,3.83
2017-07-08T12:24:11.468Z,3.10
2017-07-08T12:26:39.696Z,3.33
2017-07-08T12:29:07.152Z,3.90
2017-07-08T12:31:34.620Z,3.20
2017-07-08T12:34:02.073Z,4.17
2017-07-08T12:36:29.529Z,3.80
2017-07-08T12:38:56.965Z,2.87
2017-07-08T12:41:24.415Z,2.73
2017-07-08T12:43:51.864Z,2.43
2017-07-08T12:46:19.315Z,2.20
2017-07-08T12:48:46.756Z,2.40
2017-07-08T12:51:14.965Z,2.50
2017-07-08T12:53:42.428Z,2.70
2017-07-08T12:56:09.868Z,2.40
2017-07-08T12:58:37.328Z,2.30
2017-07-08T13:01:04.976Z,2.20
2017-07-08T13:03:32.429Z,2.30
2017-07-08T13:05:59.873Z,2.53
2017-07-08T13:08:28.098Z,2.53
2017-07-08T13:10:55.531Z,2.67
2017-07-08T13:13:22.991Z,2.30
2017-07-08T13:15:50.427Z,2.80
2017-07-08T13:18:18.722Z,1.90
2017-07-08T13:20:46.113Z,7.40
2017-07-08T13:23:13.559Z,2.30
2017-07-08T13:25:41.016Z,1.67
2017-07-08T13:28:08.464Z,1.63
2017-07-08T13:30:35.929Z,3.27
2017-07-08T13:33:03.375Z,1.67
2017-07-08T13:35:30.834Z,1.77
2017-07-08T13:37:58.272Z,2.37
2017-07-08T13:40:25.728Z,3.37
2017-07-08T13:42:53.180Z,1.80
2017-07-08T13:45:20.633Z,2.57
2017-07-08T13:47:48.077Z,2.53
2017-07-08T13:50:16.292Z,1.67
2017-07-08T13:52:43.732Z,1.60
2017-07-08T13:55:11.176Z,2.20
2017-07-08T13:57:39.404Z,2.37
2017-07-08T14:00:06.851Z,3.23
2017-07-08T14:02:34.314Z,1.87
2017-07-08T14:05:01.754Z,2.10
2017-07-08T14:07:29.212Z,2.37
2017-07-08T14:09:56.652Z,2.20
2017-07-08T14:12:24.112Z,2.03
2017-07-08T14:14:51.683Z,2.00
2017-07-08T14:17:19.156Z,2.47
2017-07-08T14:19:46.604Z,2.10
2017-07-08T14:22:14.050Z,6.70
2017-07-08T14:24:41.503Z,2.80
2017-07-08T14:27:08.946Z,2.00
2017-07-08T14:29:36.392Z,2.00
2017-07-08T14:32:03.835Z,1.97
2017-07-08T14:34:32.064Z,2.17
2017-07-08T14:36:59.508Z,4.40
2017-07-08T14:39:26.966Z,2.30
2017-07-08T14:41:54.409Z,3.73
2017-07-08T14:44:21.860Z,2.33
2017-07-08T14:46:49.297Z,2.53
2017-07-08T14:49:17.529Z,2.47
2017-07-08T14:51:44.971Z,2.90
2017-07-08T14:54:12.424Z,2.67
2017-07-08T14:56:39.881Z,2.37
2017-07-08T14:59:07.332Z,2.70
2017-07-08T15:01:34.797Z,3.50
2017-07-08T15:04:02.232Z,3.00
2017-07-08T15:06:29.686Z,4.03
2017-07-08T15:08:57.128Z,2.53
2017-07-08T15:11:25.355Z,4.97
2017-07-08T15:13:52.800Z,3.50
2017-07-08T15:16:20.276Z,3.30
2017-07-08T15:18:47.724Z,2.77
2017-07-08T15:21:15.167Z,3.60
2017-07-08T15:23:42.619Z,3.80
2017-07-08T15:26:10.064Z,2.70
2017-07-08T15:28:37.532Z,3.37
2017-07-08T15:31:04.962Z,3.00
2017-07-08T15:33:32.420Z,2.63
2017-07-08T15:36:00.625Z,2.70
2017-07-08T15:38:28.072Z,3.00
2017-07-08T15:40:55.525Z,2.60
2017-07-08T15:43:22.986Z,2.80
2017-07-08T15:45:50.424Z,3.33
2017-07-08T15:48:17.884Z,6.40
2017-07-08T15:50:45.320Z,3.60
2017-07-08T15:53:13.540Z,4.60
2017-07-08T15:55:40.996Z,3.17
2017-07-08T15:58:08.448Z,4.50
2017-07-08T16:00:35.901Z,2.93
2017-07-08T16:03:03.343Z,4.50
2017-07-08T16:05:30.796Z,3.00
2017-07-08T16:07:58.243Z,3.53
2017-07-08T16:10:25.696Z,3.30
2017-07-08T16:12:53.913Z,3.50
2017-07-08T16:15:21.369Z,3.57
2017-07-08T16:17:48.824Z,3.53
2017-07-08T16:20:16.283Z,3.50
2017-07-08T16:22:43.723Z,4.00
2017-07-08T16:25:11.191Z,4.13
2017-07-08T16:27:38.627Z,3.37
2017-07-08T16:30:06.081Z,3.50
2017-07-08T16:32:33.520Z,3.87
2017-07-08T16:35:01.751Z,3.77
2017-07-08T16:37:29.197Z,3.57
2017-07-08T16:39:56.640Z,3.77
2017-07-08T16:42:24.101Z,3.23
2017-07-08T16:44:51.540Z,3.50
2017-07-08T16:47:18.997Z,5.03
2017-07-08T16:49:46.437Z,4.90
2017-07-08T16:52:13.901Z,4.20
2017-07-08T16:54:41.345Z,3.73
2017-07-08T16:57:08.802Z,4.20
2017-07-08T16:59:36.244Z,4.03
2017-07-08T17:02:03.712Z,4.03
2017-07-08T17:04:31.155Z,3.00
2017-07-08T17:06:58.628Z,3.10
2017-07-08T17:09:26.059Z,3.53
2017-07-08T17:11:53.520Z,3.77
2017-07-08T17:14:20.970Z,3.53
2017-07-08T17:16:48.443Z,4.17
2017-07-08T17:19:15.891Z,5.13
2017-07-08T17:21:43.331Z,3.10
2017-07-08T17:24:10.788Z,4.10
2017-07-08T17:26:38.233Z,3.50
2017-07-08T17:29:05.690Z,6.20
2017-07-08T17:31:33.142Z,3.60
2017-07-08T17:34:00.603Z,3.50
2017-07-08T17:36:28.043Z,3.53
2017-07-08T17:38:55.492Z,3.33
2017-07-08T17:41:22.935Z,3.60
2017-07-08T17:43:50.409Z,4.60
2017-07-08T17:46:17.843Z,4.00
2017-07-08T17:48:45.285Z,3.30
2017-07-08T17:51:12.740Z,3.43
2017-07-08T17:53:40.180Z,3.73
2017-07-08T17:56:07.636Z,3.47
2017-07-08T17:58:35.072Z,3.10
2017-07-08T18:01:02.528Z,3.47
2017-07-08T18:03:29.968Z,3.50
2017-07-08T18:05:57.420Z,3.50
2017-07-08T18:08:24.864Z,3.70
2017-07-08T18:10:52.312Z,3.13
2017-07-08T18:13:19.753Z,3.50
2017-07-08T18:15:47.204Z,3.50
2017-07-08T18:18:14.645Z,3.73
2017-07-08T18:20:42.092Z,3.50
2017-07-08T18:23:09.557Z,3.23
2017-07-08T18:25:36.996Z,3.30
2017-07-08T18:28:04.452Z,3.40
2017-07-08T18:30:31.900Z,3.77
2017-07-08T18:32:59.348Z,3.53
2017-07-08T18:35:26.792Z,3.27
2017-07-08T18:37:55.016Z,3.60
2017-07-08T18:40:22.453Z,3.73
2017-07-08T18:42:49.912Z,3.07
2017-07-08T18:45:17.348Z,4.70
2017-07-08T18:47:44.824Z,3.50
2017-07-08T18:50:12.261Z,3.97
2017-07-08T18:52:39.696Z,4.03
2017-07-08T18:55:07.913Z,3.40
2017-07-08T18:57:35.352Z,4.10
2017-07-08T19:00:02.808Z,3.87
2017-07-08T19:02:30.248Z,4.60
2017-07-08T19:04:58.472Z,3.90
2017-07-08T19:07:25.911Z,4.33
2017-07-08T19:09:53.369Z,3.80
2017-07-08T19:12:20.807Z,4.67
2017-07-08T19:14:48.268Z,4.07
2017-07-08T19:17:15.708Z,5.10
2017-07-08T19:19:43.156Z,4.93
2017-07-08T19:22:10.595Z,5.07
2017-07-08T19:24:38.065Z,4.60
2017-07-08T19:27:05.514Z,4.10
2017-07-08T19:29:32.987Z,4.13
2017-07-08T19:32:01.197Z,6.27
2017-07-08T19:34:28.645Z,5.10
2017-07-08T19:36:56.100Z,5.13
2017-07-08T19:39:23.536Z,4.80
2017-07-08T19:41:51.756Z,5.13
2017-07-08T19:44:19.204Z,5.37
2017-07-08T19:46:46.667Z,4.97
2017-07-08T19:49:14.122Z,5.77
2017-07-08T19:51:41.571Z,5.20
2017-07-08T19:54:09.012Z,4.97
2017-07-08T19:56:36.465Z,5.13
2017-07-08T19:59:03.915Z,7.53
2017-07-08T20:01:31.363Z,6.37
2017-07-08T20:03:59.583Z,6.60
2017-07-08T20:06:27.016Z,6.03
2017-07-08T20:08:54.459Z,7.23
2017-07-08T20:11:21.907Z,7.07
2017-07-08T20:13:50.128Z,7.10
2017-07-08T20:16:17.573Z,7.47
2017-07-08T20:18:45.029Z,7.60
2017-07-08T20:21:12.469Z,7.50
2017-07-08T20:23:39.918Z,7.10
2017-07-08T20:26:07.364Z,10.43
2017-07-08T20:28:34.812Z,7.30
2017-07-08T20:31:02.258Z,7.00
2017-07-08T20:33:29.707Z,7.60
2017-07-08T20:36:00.580Z,9.17
2017-07-08T20:38:28.033Z,7.97
2017-07-08T20:40:55.482Z,7.93
2017-07-08T20:43:22.925Z,9.83
2017-07-08T20:45:50.367Z,6.63
2017-07-08T20:48:17.837Z,7.10
2017-07-08T20:50:45.268Z,6.17
2017-07-08T20:53:12.716Z,6.67
2017-07-08T20:55:40.168Z,6.03
2017-07-08T20:58:07.632Z,5.70
2017-07-08T21:00:35.079Z,6.13
2017-07-08T21:03:02.516Z,8.03
2017-07-08T21:05:29.971Z,9.13
2017-07-08T21:07:57.415Z,7.30
2017-07-08T21:10:24.868Z,6.83
2017-07-08T21:12:53.091Z,6.53
2017-07-08T21:15:20.559Z,6.73
2017-07-08T21:17:47.993Z,5.80
2017-07-08T21:20:15.461Z,6.63
2017-07-08T21:22:42.903Z,7.47
2017-07-08T21:25:10.380Z,5.87
2017-07-08T21:27:37.824Z,5.93
2017-07-08T21:30:05.273Z,7.00
2017-07-08T21:32:32.712Z,6.70
2017-07-08T21:35:00.164Z,5.90
2017-07-08T21:37:27.605Z,6.03
2017-07-08T21:39:55.825Z,6.20
2017-07-08T21:42:23.279Z,6.63
2017-07-08T21:44:50.711Z,6.40
2017-07-08T21:47:18.171Z,7.60
2017-07-08T21:49:45.612Z,7.07
2017-07-08T21:52:13.828Z,5.07
2017-07-08T21:54:41.276Z,5.07
2017-07-08T21:57:08.734Z,4.90
2017-07-08T21:59:36.168Z,5.77
2017-07-08T22:02:03.623Z,6.87
2017-07-08T22:04:31.060Z,6.03
2017-07-08T22:06:59.267Z,6.03
2017-07-08T22:09:26.737Z,5.20
2017-07-08T22:11:54.187Z,4.53
2017-07-08T22:14:21.625Z,6.13
2017-07-08T22:16:49.076Z,9.30
2017-07-08T22:19:16.521Z,5.53
2017-07-08T22:21:44.749Z,5.47
2017-07-08T22:24:12.193Z,6.20
2017-07-08T22:26:39.649Z,5.30
2017-07-08T22:29:07.095Z,5.80
2017-07-08T22:31:34.544Z,5.73
2017-07-08T22:34:01.980Z,6.07
2017-07-08T22:36:30.194Z,5.53
2017-07-08T22:38:57.656Z,5.47
2017-07-08T22:41:25.096Z,4.90
2017-07-08T22:43:52.549Z,4.00
2017-07-08T22:46:19.992Z,5.50
2017-07-08T22:48:47.457Z,5.60
2017-07-08T22:51:14.897Z,4.17
2017-07-08T22:53:43.116Z,4.67
2017-07-08T22:56:10.556Z,3.90
2017-07-08T22:58:38.012Z,6.87
2017-07-08T23:01:05.455Z,4.23
2017-07-08T23:03:32.912Z,6.83
2017-07-08T23:06:00.351Z,6.13
2017-07-08T23:08:28.580Z,4.67
2017-07-08T23:10:56.024Z,4.13
2017-07-08T23:13:23.462Z,4.53
2017-07-08T23:15:50.916Z,4.00
2017-07-08T23:18:18.364Z,4.13
2017-07-08T23:20:45.818Z,3.33
2017-07-08T23:23:14.027Z,7.40
2017-07-08T23:25:41.484Z,5.30
2017-07-08T23:28:08.923Z,5.67
2017-07-08T23:30:36.376Z,5.57
2017-07-08T23:33:03.820Z,4.40
2017-07-08T23:35:32.040Z,3.80
2017-07-08T23:37:59.476Z,5.37
2017-07-08T23:40:26.928Z,7.53
2017-07-08T23:42:54.368Z,5.87
2017-07-08T23:45:21.823Z,5.10
2017-07-08T23:47:49.263Z,4.33
2017-07-08T23:50:17.488Z,8.90
2017-07-08T23:52:44.928Z,5.00
2017-07-08T23:55:12.371Z,5.00
2017-07-08T23:57:39.829Z,4.30
